Time;durP1;ratioP1;P1;durP2;ratioP2;P2;SDS_P1;SDS_P2;PMS_P1;PMS_P2;Temp;Humidity;BMP_temperature;BMP_pressure;BME280_temperature;BME280_humidity;BME280_pressure;Samples;Min_cycle;Max_cycle;Signal;HPM_P1;HPM_P2
2021/12/20 00:02:11;;;;;;;2.67;0.93;;;0.60;87.10;;;;;;5014547;28;20547;-56
2021/12/20 00:04:39;;;;;;;4.50;1.47;;;0.60;86.00;;;;;;5014576;28;20538;-55
2021/12/20 00:07:07;;;;;;;1.30;1.10;;;0.60;87.80;;;;;;5005035;28;20568;-55
2021/12/20 00:09:33;;;;;;;2.50;1.17;;;0.60;93.20;;;;;;4998397;28;20538;-55
2021/12/20 00:12:00;;;;;;;1.77;1.20;;;0.60;91.50;;;;;;5012903;28;20597;-55
2021/12/20 00:14:26;;;;;;;2.33;1.23;;;0.60;94.10;;;;;;5014053;28;20538;-55
2021/12/20 00:16:53;;;;;;;2.27;1.33;;;0.50;90.30;;;;;;4994995;28;21073;-56
2021/12/20 00:19:19;;;;;;;2.33;1.30;;;0.60;97.30;;;;;;4996752;28;20574;-55
2021/12/20 00:21:46;;;;;;;1.33;1.00;;;0.60;99.90;;;;;;5016098;28;20539;-55
2021/12/20 00:24:14;;;;;;;1.47;1.37;;;0.50;92.90;;;;;;5012987;28;20563;-55
2021/12/20 00:26:40;;;;;;;2.10;1.30;;;0.40;84.10;;;;;;5013938;28;20923;-55
2021/12/20 00:29:07;;;;;;;1.20;0.97;;;0.40;83.30;;;;;;5013492;28;20522;-54
2021/12/20 00:31:33;;;;;;;2.00;1.47;;;0.40;79.00;;;;;;5014374;28;20452;-55
2021/12/20 00:34:00;;;;;;;1.90;1.40;;;0.40;85.50;;;;;;5013249;28;20531;-55
2021/12/20 00:36:29;;;;;;;2.60;1.50;;;0.40;83.10;;;;;;5012942;28;20570;-55
2021/12/20 00:41:42;;;;;;;3.10;1.10;;;0.40;81.10;;;;;;5013527;28;20452;-55
2021/12/20 00:44:08;;;;;;;5.60;1.40;;;0.40;83.10;;;;;;5013010;28;20535;-55
2021/12/20 00:46:35;;;;;;;2.53;1.33;;;0.40;85.10;;;;;;5013683;28;20558;-56
2021/12/20 00:49:01;;;;;;;3.33;1.30;;;0.40;82.30;;;;;;5013655;28;20590;-55
2021/12/20 00:51:28;;;;;;;1.90;1.00;;;0.30;72.00;;;;;;5012148;28;20900;-54
2021/12/20 00:53:55;;;;;;;1.23;1.10;;;0.30;72.80;;;;;;5012880;28;20448;-54
2021/12/20 00:56:21;;;;;;;5.33;1.70;;;0.30;64.30;;;;;;5012456;28;20945;-56
2021/12/20 00:58:49;;;;;;;3.67;1.23;;;0.20;66.80;;;;;;5013466;28;20534;-55
2021/12/20 01:01:16;;;;;;;2.67;1.17;;;0.20;67.40;;;;;;5013616;28;20574;-54
2021/12/20 01:03:42;;;;;;;2.20;1.50;;;0.20;55.00;;;;;;5012243;28;20546;-54
2021/12/20 01:06:09;;;;;;;1.43;1.20;;;0.20;53.50;;;;;;5013598;28;20543;-55
2021/12/20 01:08:38;;;;;;;2.20;1.20;;;0.10;57.40;;;;;;5012501;28;20539;-54
2021/12/20 01:11:05;;;;;;;5.23;1.20;;;0.10;61.80;;;;;;5012611;28;20521;-55
2021/12/20 01:13:33;;;;;;;8.90;1.80;;;0.10;56.00;;;;;;5013344;28;20807;-55
2021/12/20 01:16:05;;;;;;;3.27;1.60;;;0.00;50.00;;;;;;5012953;28;20475;-56
2021/12/20 01:18:31;;;;;;;1.73;1.63;;;0.00;50.50;;;;;;5011109;28;20464;-55
2021/12/20 01:20:58;;;;;;;1.60;1.30;;;0.00;52.70;;;;;;5013708;28;20566;-55
2021/12/20 01:23:25;;;;;;;4.27;1.60;;;0.00;41.20;;;;;;5012577;28;20479;-55
2021/12/20 01:25:51;;;;;;;1.90;1.40;;;0.00;44.50;;;;;;5013565;28;20563;-55
2021/12/20 01:28:18;;;;;;;1.97;1.47;;;0.00;46.70;;;;;;5013716;28;20531;-55
2021/12/20 01:30:44;;;;;;;4.57;1.60;;;0.00;43.40;;;;;;5004901;28;20552;-55
2021/12/20 01:33:13;;;;;;;2.03;1.50;;;-0.10;40.60;;;;;;5012809;28;20510;-55
2021/12/20 01:35:41;;;;;;;3.17;1.40;;;-0.10;37.10;;;;;;5013119;28;20486;-55
2021/12/20 01:38:08;;;;;;;2.50;1.40;;;-0.10;37.30;;;;;;5012814;28;20455;-54
2021/12/20 01:40:36;;;;;;;4.43;1.60;;;-0.10;38.10;;;;;;5012743;28;20876;-55
2021/12/20 01:43:04;;;;;;;3.53;1.53;;;-0.20;40.90;;;;;;5011766;28;20471;-55
2021/12/20 01:45:31;;;;;;;3.17;1.30;;;-0.20;29.00;;;;;;5012166;28;20870;-55
2021/12/20 01:48:06;;;;;;;4.77;2.13;;;-0.20;27.00;;;;;;5012531;28;20929;-55
2021/12/20 01:51:13;;;;;;;4.57;1.53;;;-0.20;24.40;;;;;;5011944;28;20885;-55
2021/12/20 01:53:39;;;;;;;2.20;1.30;;;-0.10;22.00;;;;;;5004674;28;20470;-54
2021/12/20 01:56:06;;;;;;;2.47;1.47;;;-0.20;26.30;;;;;;5011118;28;21080;-55
2021/12/20 01:58:33;;;;;;;2.80;1.10;;;-0.20;21.30;;;;;;5012282;28;20531;-55
2021/12/20 02:04:01;;;;;;;3.10;1.17;;;-0.20;99.90;;;;;;5088738;28;20572;-55
2021/12/20 02:06:34;;;;;;;3.53;1.80;;;-0.20;99.90;;;;;;5074555;28;20477;-55
2021/12/20 02:09:03;;;;;;;7.17;1.60;;;-0.30;99.90;;;;;;5068584;28;20448;-55
2021/12/20 02:11:30;;;;;;;1.83;1.20;;;-0.30;99.90;;;;;;5064870;28;20871;-54
2021/12/20 02:13:57;;;;;;;3.53;1.70;;;-0.30;99.90;;;;;;5053186;28;21179;-55
2021/12/20 02:16:24;;;;;;;6.23;2.67;;;-0.20;99.90;;;;;;5064985;28;20561;-55
2021/12/20 02:18:51;;;;;;;2.83;1.33;;;-0.20;99.90;;;;;;5063576;28;20528;-55
2021/12/20 02:21:19;;;;;;;2.93;1.57;;;-0.20;99.90;;;;;;5068618;28;20889;-55
2021/12/20 02:23:46;;;;;;;1.03;0.93;;;-0.30;99.90;;;;;;5067173;28;20576;-55
2021/12/20 02:26:16;;;;;;;5.03;1.47;;;-0.20;99.90;;;;;;5067660;28;20512;-54
2021/12/20 02:28:46;;;;;;;1.20;1.10;;;-0.30;99.90;;;;;;5066774;28;20452;-55
2021/12/20 02:37:01;;;;;;;3.13;1.70;;;-0.30;99.90;;;;;;5054291;28;20492;-55
2021/12/20 02:39:27;;;;;;;2.50;1.47;;;-0.30;99.90;;;;;;5065011;28;20445;-55
2021/12/20 02:41:54;;;;;;;4.00;1.47;;;-0.30;99.90;;;;;;5058811;28;20552;-55
2021/12/20 02:44:23;;;;;;;4.73;1.40;;;-0.30;99.90;;;;;;5067530;28;20475;-55
2021/12/20 02:47:04;;;;;;;2.10;1.50;;;-0.30;99.90;;;;;;5070304;28;20925;-55
2021/12/20 02:49:32;;;;;;;4.17;2.20;;;-0.30;99.90;;;;;;5069485;28;21001;-55
2021/12/20 02:52:03;;;;;;;1.97;1.33;;;-0.30;99.90;;;;;;5067748;28;20524;-54
2021/12/20 02:54:30;;;;;;;1.97;1.47;;;-0.30;99.90;;;;;;5061894;28;20481;-55
2021/12/20 02:56:57;;;;;;;4.23;1.47;;;-0.30;99.90;;;;;;5047645;28;20572;-55
2021/12/20 02:59:24;;;;;;;3.03;1.70;;;-0.30;99.90;;;;;;5047709;28;20457;-55
2021/12/20 03:01:53;;;;;;;3.60;1.60;;;-0.30;99.90;;;;;;5061715;28;20457;-54
2021/12/20 03:04:20;;;;;;;3.67;1.70;;;-0.30;99.90;;;;;;5067721;28;20528;-55
2021/12/20 03:06:49;;;;;;;4.30;1.50;;;-0.40;99.90;;;;;;5067655;28;20941;-54
2021/12/20 03:09:21;;;;;;;2.70;1.80;;;-0.40;99.90;;;;;;5052000;28;20847;-55
2021/12/20 03:11:54;;;;;;;2.00;1.40;;;-0.40;99.90;;;;;;5060990;28;20942;-54
2021/12/20 03:14:26;;;;;;;4.00;1.77;;;-0.40;99.90;;;;;;5059509;28;20503;-55
2021/12/20 03:16:52;;;;;;;1.93;1.30;;;-0.40;99.90;;;;;;5052905;23;20584;-49
2021/12/20 03:19:19;;;;;;;1.57;1.00;;;-0.40;99.90;;;;;;5033939;28;20537;-47
2021/12/20 03:21:45;;;;;;;3.80;1.40;;;-0.40;99.90;;;;;;5032452;28;20536;-49
2021/12/20 03:24:12;;;;;;;3.97;1.67;;;-0.40;99.90;;;;;;5034458;28;20578;-49
2021/12/20 03:26:40;;;;;;;4.90;1.37;;;-0.40;99.90;;;;;;5034224;28;21066;-48
2021/12/20 03:29:07;;;;;;;2.23;1.40;;;-0.50;99.90;;;;;;5033384;28;20534;-48
2021/12/20 03:31:34;;;;;;;4.10;1.60;;;-0.40;99.90;;;;;;5009224;28;20543;-48
2021/12/20 03:34:01;;;;;;;3.43;1.20;;;-0.50;99.90;;;;;;5014658;28;20531;-49
2021/12/20 03:36:27;;;;;;;6.53;1.57;;;-0.50;99.90;;;;;;5014543;28;20575;-49
2021/12/20 03:38:54;;;;;;;2.00;1.53;;;-0.50;99.90;;;;;;5011814;28;20984;-47
2021/12/20 03:41:21;;;;;;;1.30;1.10;;;-0.50;99.90;;;;;;5028541;28;20534;-48
2021/12/20 03:43:50;;;;;;;5.90;1.63;;;-0.50;99.90;;;;;;4994627;28;20578;-48
2021/12/20 03:46:17;;;;;;;13.70;2.40;;;-0.50;99.90;;;;;;4994459;28;20472;-49
2021/12/20 03:48:44;;;;;;;6.20;2.50;;;-0.50;99.90;;;;;;4994625;28;20528;-48
2021/12/20 03:51:10;;;;;;;4.17;1.53;;;-0.60;99.90;;;;;;4994487;28;21013;-47
2021/12/20 03:53:37;;;;;;;5.43;1.83;;;-0.60;99.90;;;;;;5018121;28;20901;-48
2021/12/20 03:56:05;;;;;;;2.10;1.30;;;-0.50;99.90;;;;;;5007962;28;20550;-49
2021/12/20 03:58:32;;;;;;;3.10;1.70;;;-0.50;99.90;;;;;;5013754;28;20479;-49
2021/12/20 04:01:03;;;;;;;6.67;2.23;;;-0.50;99.90;;;;;;5032338;28;20513;-49
2021/12/20 04:03:33;;;;;;;4.37;1.80;;;-0.60;99.90;;;;;;5033888;28;20573;-48
2021/12/20 04:05:59;;;;;;;2.60;1.70;;;-0.60;99.90;;;;;;5031866;28;21068;-49
2021/12/20 04:08:26;;;;;;;3.97;1.70;;;-0.60;99.90;;;;;;5021281;28;20492;-49
2021/12/20 04:10:53;;;;;;;4.87;1.40;;;-0.60;99.90;;;;;;4996194;28;20487;-48
2021/12/20 04:13:19;;;;;;;8.63;2.40;;;-0.60;99.90;;;;;;4994134;28;21002;-48
2021/12/20 04:15:46;;;;;;;4.40;1.87;;;-0.60;99.90;;;;;;5002985;28;20450;-49
2021/12/20 04:18:14;;;;;;;6.90;1.83;;;-0.60;99.90;;;;;;5029104;28;20543;-48
2021/12/20 04:20:40;;;;;;;3.30;1.60;;;-0.60;99.90;;;;;;5008375;28;20550;-49
2021/12/20 04:23:07;;;;;;;5.53;1.93;;;-0.60;99.90;;;;;;5012385;28;20574;-49
2021/12/20 04:25:33;;;;;;;4.20;1.40;;;-0.50;99.90;;;;;;5009729;28;20535;-49
2021/12/20 04:28:00;;;;;;;4.20;2.00;;;-0.50;99.90;;;;;;5013419;28;20542;-48
2021/12/20 04:30:29;;;;;;;3.90;1.80;;;-0.50;99.90;;;;;;5013558;28;20473;-49
2021/12/20 04:32:55;;;;;;;3.73;1.77;;;-0.50;99.90;;;;;;5028162;28;20463;-49
2021/12/20 04:35:23;;;;;;;3.33;1.40;;;-0.50;99.90;;;;;;5013391;28;20455;-49
2021/12/20 04:37:51;;;;;;;3.97;2.17;;;-0.50;99.90;;;;;;5012842;28;20555;-48
2021/12/20 04:40:21;;;;;;;5.63;1.30;;;-0.50;99.90;;;;;;5018482;28;20452;-48
2021/12/20 04:42:49;;;;;;;5.60;1.37;;;-0.50;99.90;;;;;;5013310;28;20486;-48
2021/12/20 04:45:16;;;;;;;5.20;2.20;;;-0.40;99.90;;;;;;5011660;28;20554;-48
2021/12/20 04:47:43;;;;;;;3.40;1.83;;;-0.40;99.90;;;;;;5016602;28;20551;-49
2021/12/20 04:50:10;;;;;;;5.30;1.80;;;-0.40;99.90;;;;;;5013173;28;20542;-48
2021/12/20 04:52:38;;;;;;;4.53;1.33;;;-0.40;99.90;;;;;;5012807;28;20999;-49
2021/12/20 04:55:06;;;;;;;2.27;1.93;;;-0.40;99.90;;;;;;5012884;28;21007;-49
2021/12/20 04:57:33;;;;;;;5.63;2.00;;;-0.40;99.90;;;;;;5009456;28;20605;-53
2021/12/20 05:00:00;;;;;;;2.73;1.97;;;-0.40;99.90;;;;;;4993381;28;20487;-53
2021/12/20 05:02:26;;;;;;;3.63;2.03;;;-0.40;99.90;;;;;;5010246;28;20894;-53
2021/12/20 05:04:53;;;;;;;4.43;2.07;;;-0.40;99.90;;;;;;5032487;28;20534;-53
2021/12/20 05:07:20;;;;;;;9.90;2.30;;;-0.40;99.90;;;;;;5031083;28;20561;-52
2021/12/20 05:09:48;;;;;;;4.43;1.63;;;-0.40;99.90;;;;;;5012628;28;20554;-53
2021/12/20 05:12:14;;;;;;;5.77;2.30;;;-0.40;99.90;;;;;;5011680;28;20858;-52
2021/12/20 05:14:43;;;;;;;3.80;1.97;;;-0.30;99.90;;;;;;5012780;28;20472;-52
2021/12/20 05:17:11;;;;;;;5.23;1.93;;;-0.40;99.90;;;;;;5013565;28;20566;-53
2021/12/20 05:19:38;;;;;;;6.70;1.90;;;-0.40;99.90;;;;;;4993572;28;20544;-53
2021/12/20 05:22:05;;;;;;;7.97;3.63;;;-0.40;99.90;;;;;;4992677;28;20503;-53
2021/12/20 05:24:32;;;;;;;4.17;2.33;;;-0.40;99.90;;;;;;5005471;28;20572;-53
2021/12/20 05:27:00;;;;;;;5.17;2.30;;;-0.40;99.90;;;;;;5012508;28;20582;-54
2021/12/20 05:29:27;;;;;;;7.33;2.60;;;-0.40;99.90;;;;;;4995363;28;20535;-52
2021/12/20 05:31:53;;;;;;;4.10;2.43;;;-0.40;99.90;;;;;;5019400;28;20582;-53
2021/12/20 05:34:20;;;;;;;3.70;1.80;;;-0.40;99.90;;;;;;5032018;28;20470;-53
2021/12/20 05:36:47;;;;;;;3.33;1.87;;;-0.40;99.90;;;;;;5031597;28;20567;-52
2021/12/20 05:39:14;;;;;;;9.17;2.60;;;-0.40;99.90;;;;;;5015406;28;20534;-52
2021/12/20 05:41:41;;;;;;;4.37;2.20;;;-0.40;99.90;;;;;;5012347;28;20534;-52
2021/12/20 05:44:09;;;;;;;4.10;1.97;;;-0.50;99.90;;;;;;5010988;28;20483;-52
2021/12/20 05:46:36;;;;;;;6.70;2.37;;;-0.50;99.90;;;;;;5012074;28;20558;-53
2021/12/20 05:49:03;;;;;;;3.63;1.80;;;-0.50;99.90;;;;;;5004046;28;20480;-53
2021/12/20 05:51:29;;;;;;;3.97;2.20;;;-0.50;99.90;;;;;;4992690;28;20535;-51
2021/12/20 05:53:56;;;;;;;4.80;2.13;;;-0.50;99.90;;;;;;4992605;28;20444;-53
2021/12/20 05:56:22;;;;;;;4.50;1.97;;;-0.50;99.90;;;;;;5006464;28;20562;-53
2021/12/20 05:58:49;;;;;;;3.80;1.77;;;-0.60;99.90;;;;;;5011806;28;20483;-52
2021/12/20 06:01:17;;;;;;;3.23;1.80;;;-0.60;99.90;;;;;;5011161;28;20562;-53
2021/12/20 06:03:43;;;;;;;6.10;2.03;;;-0.70;99.90;;;;;;5029130;28;20565;-52
2021/12/20 06:06:10;;;;;;;3.53;2.20;;;-0.60;99.90;;;;;;5025778;28;20555;-51
2021/12/20 06:08:36;;;;;;;3.53;2.40;;;-0.60;99.90;;;;;;5004719;28;20463;-52
2021/12/20 06:11:03;;;;;;;4.60;2.07;;;-0.70;99.90;;;;;;5012021;28;20482;-52
2021/12/20 06:13:30;;;;;;;3.70;1.80;;;-0.70;99.90;;;;;;5011889;28;21029;-53
2021/12/20 06:15:56;;;;;;;4.33;1.97;;;-0.70;99.90;;;;;;5009805;28;20554;-54
2021/12/20 06:18:24;;;;;;;3.73;1.93;;;-0.70;99.90;;;;;;5008864;28;20553;-52
2021/12/20 06:20:51;;;;;;;4.93;1.77;;;-0.70;99.90;;;;;;5010083;28;20535;-52
2021/12/20 06:23:17;;;;;;;3.10;2.00;;;-0.70;99.90;;;;;;5011317;28;20574;-53
2021/12/20 06:25:44;;;;;;;5.50;2.77;;;-0.70;99.90;;;;;;5008304;28;20543;-53
2021/12/20 06:28:11;;;;;;;7.60;2.10;;;-0.80;99.90;;;;;;4992564;28;20552;-53
2021/12/20 06:30:37;;;;;;;4.20;2.23;;;-0.80;99.90;;;;;;4993988;28;20571;-52
2021/12/20 06:33:04;;;;;;;7.90;2.10;;;-0.90;99.90;;;;;;5011626;28;20554;-52
2021/12/20 06:35:32;;;;;;;5.43;2.07;;;-0.90;99.90;;;;;;5011774;28;20538;-53
2021/12/20 06:38:01;;;;;;;3.00;2.20;;;-0.90;99.90;;;;;;4994434;28;20559;-53
2021/12/20 06:40:28;;;;;;;4.10;1.97;;;-0.90;99.90;;;;;;4991594;28;20942;-52
2021/12/20 06:42:55;;;;;;;3.80;1.97;;;-1.00;99.90;;;;;;5011278;28;20906;-53
2021/12/20 06:45:21;;;;;;;6.77;2.20;;;-0.90;99.90;;;;;;5011498;28;20468;-52
2021/12/20 06:47:48;;;;;;;6.03;2.50;;;-1.00;99.90;;;;;;5011368;28;20507;-53
2021/12/20 06:50:15;;;;;;;4.23;2.40;;;-1.00;99.90;;;;;;5014411;28;20541;-52
2021/12/20 06:52:43;;;;;;;10.67;3.80;;;-1.00;99.90;;;;;;5015341;28;20530;-53
2021/12/20 06:55:10;;;;;;;4.10;2.00;;;-1.00;99.90;;;;;;5013966;28;20495;-52
2021/12/20 06:57:39;;;;;;;5.73;2.67;;;-1.00;99.90;;;;;;5000920;28;20472;-53
2021/12/20 07:00:07;;;;;;;5.20;2.27;;;-1.00;97.40;;;;;;4995371;28;20563;-53
2021/12/20 07:02:33;;;;;;;5.10;2.40;;;-1.00;95.80;;;;;;5034375;28;20481;-53
2021/12/20 07:05:00;;;;;;;4.60;2.37;;;-1.00;90.80;;;;;;5022219;28;20571;-53
2021/12/20 07:07:28;;;;;;;10.57;2.83;;;-1.00;93.40;;;;;;5003290;28;20575;-52
2021/12/20 07:09:55;;;;;;;6.07;2.97;;;-1.00;95.70;;;;;;5014943;28;20455;-52
2021/12/20 07:12:22;;;;;;;4.63;2.77;;;-1.00;91.20;;;;;;5014810;28;20945;-53
2021/12/20 07:14:51;;;;;;;5.43;2.63;;;-1.00;88.60;;;;;;5010795;28;20459;-53
2021/12/20 07:17:18;;;;;;;7.30;2.73;;;-1.00;96.10;;;;;;5033499;28;20561;-52
2021/12/20 07:19:44;;;;;;;7.07;3.10;;;-1.00;92.70;;;;;;5029500;28;20605;-53
2021/12/20 07:22:11;;;;;;;6.47;3.00;;;-1.00;96.50;;;;;;5014718;28;20538;-53
2021/12/20 07:24:37;;;;;;;3.57;2.47;;;-1.00;95.20;;;;;;5012090;28;20953;-53
2021/12/20 07:27:08;;;;;;;4.83;2.90;;;-1.00;93.20;;;;;;4994907;28;20555;-53
2021/12/20 07:29:34;;;;;;;3.93;3.00;;;-0.90;84.30;;;;;;4999005;28;20532;-53
2021/12/20 07:32:01;;;;;;;5.93;2.50;;;-0.90;90.30;;;;;;4997201;28;20531;-54
2021/12/20 07:34:27;;;;;;;7.23;3.20;;;-1.00;89.50;;;;;;5010654;28;20741;-52
2021/12/20 07:36:54;;;;;;;6.07;3.17;;;-0.90;88.80;;;;;;4994859;28;20571;-52
2021/12/20 07:39:20;;;;;;;3.67;3.00;;;-0.90;88.90;;;;;;5021684;28;21016;-52
2021/12/20 07:41:48;;;;;;;3.37;2.80;;;-0.90;92.20;;;;;;5034362;28;20571;-54
2021/12/20 07:44:17;;;;;;;4.80;2.90;;;-0.80;96.20;;;;;;5023165;28;20483;-52
2021/12/20 07:46:43;;;;;;;12.73;3.50;;;-0.80;98.50;;;;;;5013611;28;20468;-53
2021/12/20 07:49:10;;;;;;;8.93;3.07;;;-0.70;99.90;;;;;;5014096;28;20530;-53
2021/12/20 07:51:36;;;;;;;6.67;3.60;;;-0.70;99.90;;;;;;5014115;28;20534;-52
2021/12/20 07:54:03;;;;;;;6.97;3.50;;;-0.70;99.90;;;;;;5014004;28;21041;-51
2021/12/20 07:56:30;;;;;;;7.50;3.73;;;-0.70;99.90;;;;;;5001351;28;20613;-52
2021/12/20 07:58:56;;;;;;;12.20;3.40;;;-0.70;99.90;;;;;;5016255;28;20523;-52
2021/12/20 08:01:24;;;;;;;2.70;2.40;;;-0.70;99.90;;;;;;5025285;28;20527;-54
2021/12/20 08:03:50;;;;;;;5.03;3.40;;;-0.70;99.90;;;;;;5010907;28;20575;-52
2021/12/20 08:06:17;;;;;;;7.90;3.87;;;-0.60;99.90;;;;;;5013851;28;20915;-53
2021/12/20 08:08:44;;;;;;;4.60;3.20;;;-0.60;99.90;;;;;;5013050;28;20980;-52
2021/12/20 08:11:11;;;;;;;3.97;3.00;;;-0.50;99.90;;;;;;5026582;28;20492;-53
2021/12/20 08:13:44;;;;;;;10.23;3.10;;;-0.40;99.90;;;;;;5013547;28;21001;-53
2021/12/20 08:16:11;;;;;;;6.30;3.77;;;-0.40;99.90;;;;;;5013573;28;20471;-53
2021/12/20 08:18:39;;;;;;;8.33;3.37;;;-0.40;99.90;;;;;;5013292;28;20448;-52
2021/12/20 08:21:06;;;;;;;6.07;3.63;;;-0.30;99.90;;;;;;5011531;28;20997;-52
2021/12/20 08:23:32;;;;;;;6.90;3.47;;;-0.20;99.90;;;;;;5010686;28;20550;-52
2021/12/20 08:25:59;;;;;;;8.10;3.77;;;0.00;99.90;;;;;;5015950;28;20531;-52
2021/12/20 08:28:27;;;;;;;4.67;3.47;;;0.00;99.90;;;;;;5012876;28;20543;-47
2021/12/20 08:30:53;;;;;;;7.60;2.83;;;0.00;99.90;;;;;;5013331;28;20456;-47
2021/12/20 08:33:20;;;;;;;8.43;3.70;;;0.00;99.90;;;;;;4995387;28;20539;-46
2021/12/20 08:35:49;;;;;;;10.00;4.37;;;0.10;99.90;;;;;;5001642;28;20550;-48
2021/12/20 08:38:16;;;;;;;5.20;3.23;;;0.20;99.90;;;;;;5013071;28;20984;-48
2021/12/20 08:40:43;;;;;;;5.63;3.30;;;0.20;99.90;;;;;;5014242;28;20530;-46
2021/12/20 08:43:09;;;;;;;10.80;3.80;;;0.30;99.90;;;;;;4996792;28;20544;-47
2021/12/20 08:45:36;;;;;;;8.97;4.27;;;0.30;99.90;;;;;;5004700;28;20566;-48
2021/12/20 08:48:03;;;;;;;7.80;2.87;;;0.50;99.90;;;;;;5012742;28;20503;-47
2021/12/20 08:50:30;;;;;;;4.47;3.40;;;0.50;91.80;;;;;;5013012;28;20526;-46
2021/12/20 08:52:58;;;;;;;7.47;3.20;;;0.60;23.80;;;;;;5012491;28;20542;-46
2021/12/20 08:55:24;;;;;;;10.80;3.77;;;0.60;26.70;;;;;;5011704;28;20670;-46
2021/12/20 08:57:52;;;;;;;7.80;3.80;;;0.60;31.10;;;;;;5032507;28;20510;-46
2021/12/20 09:00:22;;;;;;;7.70;3.80;;;0.80;31.50;;;;;;5032486;28;20964;-49
2021/12/20 09:02:50;;;;;;;7.43;3.60;;;0.70;55.10;;;;;;5016273;28;21016;-46
2021/12/20 09:05:18;;;;;;;6.00;3.53;;;0.80;50.60;;;;;;5012943;28;20590;-47
2021/12/20 09:07:44;;;;;;;8.80;3.70;;;1.00;63.10;;;;;;5012510;28;21004;-47
2021/12/20 09:10:15;;;;;;;5.37;3.23;;;1.20;71.40;;;;;;5012826;28;20455;-47
2021/12/20 09:12:42;;;;;;;13.20;3.70;;;1.20;93.90;;;;;;5002419;28;21031;-48
2021/12/20 09:15:14;;;;;;;5.67;3.30;;;1.20;99.30;;;;;;4997230;28;20544;-47
2021/12/20 09:17:41;;;;;;;9.03;3.90;;;1.30;87.50;;;;;;5037234;23;20530;-55
2021/12/20 09:20:09;;;;;;;8.83;3.73;;;1.50;99.90;;;;;;5031686;28;20529;-55
2021/12/20 09:22:48;;;;;;;7.63;2.87;;;1.50;99.90;;;;;;5032024;28;20974;-55
2021/12/20 09:25:16;;;;;;;4.53;3.03;;;1.70;99.90;;;;;;5026415;28;20475;-56
2021/12/20 09:27:43;;;;;;;5.43;3.40;;;1.50;99.90;;;;;;5012881;28;20506;-55
2021/12/20 09:30:10;;;;;;;8.00;3.03;;;1.50;99.90;;;;;;5031381;28;20534;-55
2021/12/20 09:32:37;;;;;;;5.90;2.57;;;1.50;99.90;;;;;;5032210;28;20526;-55
2021/12/20 09:35:04;;;;;;;8.07;3.70;;;1.80;99.90;;;;;;5031991;28;20474;-55
2021/12/20 09:37:31;;;;;;;8.20;2.90;;;2.00;99.90;;;;;;5031683;28;20561;-55
2021/12/20 09:39:59;;;;;;;5.13;2.50;;;2.20;99.90;;;;;;5030662;28;20534;-55
2021/12/20 09:42:27;;;;;;;8.47;2.80;;;2.20;99.90;;;;;;5030321;28;20462;-55
2021/12/20 09:44:54;;;;;;;4.57;2.43;;;2.70;99.90;;;;;;5031499;28;20569;-55
2021/12/20 09:47:21;;;;;;;10.17;3.40;;;3.40;49.10;;;;;;5031645;28;20558;-56
2021/12/20 09:49:48;;;;;;;3.80;3.00;;;3.70;99.90;;;;;;5029702;28;20529;-55
2021/12/20 09:52:14;;;;;;;12.40;3.60;;;3.80;99.90;;;;;;5012107;28;20552;-55
2021/12/20 09:54:41;;;;;;;6.70;3.90;;;4.30;99.90;;;;;;5020424;28;21036;-56
2021/12/20 09:57:11;;;;;;;5.00;3.27;;;5.40;99.90;;;;;;5031446;28;20497;-55
2021/12/20 09:59:40;;;;;;;7.80;3.23;;;6.40;99.90;;;;;;5030850;28;20537;-55
2021/12/20 10:02:08;;;;;;;10.97;3.33;;;6.20;32.30;;;;;;5011982;28;20542;-55
2021/12/20 10:04:36;;;;;;;5.10;2.67;;;5.10;99.90;;;;;;5011808;28;20566;-55
2021/12/20 10:07:04;;;;;;;4.93;2.77;;;5.30;99.90;;;;;;5011771;28;20558;-55
2021/12/20 10:09:33;;;;;;;5.50;2.30;;;5.20;99.90;;;;;;5028806;28;20498;-55
2021/12/20 10:12:18;;;;;;;6.10;2.93;;;4.60;99.90;;;;;;5030999;28;20450;-55
2021/12/20 10:14:59;;;;;;;5.87;2.47;;;4.90;99.90;;;;;;5030289;28;20640;-55
2021/12/20 10:17:28;;;;;;;5.90;2.67;;;5.20;99.90;;;;;;5031104;28;20482;-56
2021/12/20 10:19:55;;;;;;;4.40;2.53;;;6.10;99.90;;;;;;5025931;28;20875;-55
2021/12/20 10:22:28;;;;;;;6.33;2.40;;;5.30;99.90;;;;;;5030525;28;20967;-55
2021/12/20 10:24:55;;;;;;;13.17;3.00;;;4.50;99.90;;;;;;5033337;28;21081;-55
2021/12/20 10:27:30;;;;;;;4.83;2.40;;;4.30;99.90;;;;;;5033988;28;20478;-56
2021/12/20 10:29:58;;;;;;;5.90;2.70;;;4.10;99.90;;;;;;5034055;28;20994;-55
2021/12/20 10:32:41;;;;;;;5.27;2.23;;;4.00;99.90;;;;;;5035207;28;20544;-55
2021/12/20 10:35:29;;;;;;;6.20;2.27;;;4.00;99.90;;;;;;5035354;28;20447;-56
2021/12/20 10:37:58;;;;;;;6.57;1.70;;;4.40;99.90;;;;;;5034941;28;20470;-55
2021/12/20 10:40:25;;;;;;;1.83;1.73;;;5.00;99.90;;;;;;5015850;28;21044;-55
2021/12/20 10:42:53;;;;;;;4.43;2.27;;;5.20;99.90;;;;;;5033289;28;20549;-55
2021/12/20 10:45:22;;;;;;;4.70;2.20;;;5.80;99.90;;;;;;5034879;28;20570;-55
2021/12/20 10:47:51;;;;;;;4.23;2.33;;;5.80;99.90;;;;;;5032957;28;20561;-55
2021/12/20 10:50:27;;;;;;;7.20;2.80;;;6.20;99.90;;;;;;5034143;28;20454;-55
2021/12/20 10:52:55;;;;;;;4.63;2.40;;;5.60;99.90;;;;;;5034954;28;20525;-56
2021/12/20 10:55:37;;;;;;;2.50;2.13;;;5.90;99.90;;;;;;5032677;28;20454;-56
2021/12/20 10:58:23;;;;;;;7.10;2.27;;;6.70;99.90;;;;;;5034721;28;20471;-56
2021/12/20 11:01:07;;;;;;;4.13;2.03;;;7.20;47.30;;;;;;5032071;28;20450;-55
2021/12/20 11:03:38;;;;;;;6.20;2.57;;;5.90;99.90;;;;;;5035050;28;20454;-55
2021/12/20 11:06:37;;;;;;;5.63;2.77;;;5.20;99.90;;;;;;5034638;28;20486;-55
2021/12/20 11:09:11;;;;;;;7.17;2.57;;;5.00;99.90;;;;;;5025608;28;20459;-55
2021/12/20 11:11:41;;;;;;;5.43;2.47;;;5.00;99.90;;;;;;5014941;28;20439;-55
2021/12/20 11:14:09;;;;;;;10.47;2.23;;;4.90;99.90;;;;;;5020056;28;20529;-55
2021/12/20 11:16:40;;;;;;;7.87;2.80;;;4.60;99.90;;;;;;5034830;28;20566;-55
2021/12/20 11:19:19;;;;;;;5.30;2.57;;;5.40;99.90;;;;;;5029089;28;20535;-56
2021/12/20 11:21:52;;;;;;;3.90;2.13;;;5.00;99.90;;;;;;5025061;28;20502;-54
2021/12/20 11:24:21;;;;;;;5.53;1.90;;;4.40;99.90;;;;;;5034453;28;20454;-55
2021/12/20 11:26:48;;;;;;;9.10;3.90;;;4.40;87.10;;;;;;5034484;28;20573;-56
2021/12/20 11:29:15;;;;;;;8.27;2.87;;;4.50;85.10;;;;;;5025127;28;20534;-56
2021/12/20 11:31:43;;;;;;;5.53;2.63;;;4.40;94.70;;;;;;5014607;28;20527;-55
2021/12/20 11:34:09;;;;;;;3.10;2.40;;;4.40;73.20;;;;;;5020444;28;20466;-55
2021/12/20 11:36:37;;;;;;;4.37;2.13;;;4.50;97.50;;;;;;5033434;28;20494;-55
2021/12/20 11:39:04;;;;;;;5.60;1.70;;;4.50;66.70;;;;;;5033714;28;20537;-55
2021/12/20 11:41:31;;;;;;;5.23;2.50;;;4.40;99.90;;;;;;5036356;28;20529;-55
2021/12/20 11:44:00;;;;;;;5.30;2.50;;;4.30;63.90;;;;;;5031606;28;20451;-58
2021/12/20 11:46:31;;;;;;;12.33;5.23;;;4.30;54.40;;;;;;5014484;28;20618;-57
2021/12/20 11:49:00;;;;;;;5.00;2.00;;;4.30;62.10;;;;;;5015972;28;20539;-57
2021/12/20 11:51:27;;;;;;;5.30;1.97;;;4.40;73.00;;;;;;5016972;28;20569;-57
2021/12/20 11:53:53;;;;;;;13.33;2.37;;;4.30;66.90;;;;;;5034032;28;20555;-57
2021/12/20 11:56:35;;;;;;;7.13;2.10;;;4.40;62.90;;;;;;5033613;28;20956;-57
2021/12/20 11:59:02;;;;;;;1.73;1.63;;;4.30;95.00;;;;;;5031930;28;20545;-58
2021/12/20 12:01:29;;;;;;;2.80;1.73;;;4.40;84.80;;;;;;5032361;28;20458;-57
2021/12/20 12:03:59;;;;;;;6.20;2.00;;;4.60;73.20;;;;;;5033700;28;20467;-57
2021/12/20 12:06:27;;;;;;;6.03;2.27;;;4.60;84.00;;;;;;5034900;28;20916;-57
2021/12/20 12:08:58;;;;;;;4.77;1.77;;;4.90;96.60;;;;;;5032117;28;20598;-57
2021/12/20 12:11:31;;;;;;;7.00;2.07;;;5.60;99.90;;;;;;5033470;28;20453;-57
2021/12/20 12:14:07;;;;;;;3.93;1.93;;;6.00;99.90;;;;;;5032523;28;20550;-57
2021/12/20 12:16:58;;;;;;;6.10;2.13;;;6.80;91.70;;;;;;5033415;28;20516;-59
2021/12/20 12:19:49;;;;;;;5.17;1.27;;;6.80;55.40;;;;;;5013596;28;20455;-57
2021/12/20 12:22:40;;;;;;;1.77;1.37;;;7.50;95.20;;;;;;5032606;28;20459;-57
2021/12/20 12:25:10;;;;;;;3.87;1.27;;;7.20;86.10;;;;;;5032396;28;20507;-57
2021/12/20 12:27:40;;;;;;;4.90;1.60;;;7.60;85.40;;;;;;5022839;28;20988;-57
2021/12/20 12:30:28;;;;;;;6.57;1.57;;;7.40;74.50;;;;;;5013412;28;20455;-56
2021/12/20 12:33:20;;;;;;;2.87;1.80;;;6.80;44.50;;;;;;5013416;28;20452;-57
2021/12/20 12:35:57;;;;;;;3.40;1.40;;;6.40;24.10;;;;;;5013745;28;20444;-56
2021/12/20 12:38:27;;;;;;;3.03;1.43;;;6.50;48.00;;;;;;5032197;28;20558;-56
2021/12/20 12:41:12;;;;;;;2.27;1.17;;;6.10;23.40;;;;;;5032665;28;20844;-57
2021/12/20 12:43:57;;;;;;;3.40;1.43;;;5.90;99.90;;;;;;5032951;28;20505;-61
2021/12/20 12:46:45;;;;;;;2.87;1.30;;;5.80;99.90;;;;;;5031622;28;20511;-57
2021/12/20 12:49:36;;;;;;;3.90;1.70;;;5.60;99.90;;;;;;5023289;28;20884;-57
2021/12/20 12:52:07;;;;;;;4.00;1.70;;;5.30;99.90;;;;;;5031316;28;20469;-56
2021/12/20 12:54:38;;;;;;;1.27;1.00;;;5.10;99.90;;;;;;5033017;28;20464;-56
2021/12/20 12:57:28;;;;;;;1.23;1.20;;;4.90;99.90;;;;;;5032185;28;20465;-57
2021/12/20 13:00:25;;;;;;;12.60;2.27;;;4.90;99.90;;;;;;5032618;28;20443;-57
2021/12/20 13:02:54;;;;;;;3.43;1.57;;;5.00;99.90;;;;;;5032901;28;20549;-57
2021/12/20 13:05:23;;;;;;;5.50;1.83;;;5.20;99.90;;;;;;5031390;28;20581;-56
2021/12/20 13:07:52;;;;;;;2.40;1.20;;;5.00;99.90;;;;;;5034108;28;20505;-57
2021/12/20 13:10:22;;;;;;;4.30;1.57;;;4.80;99.90;;;;;;5032447;28;20529;-57
2021/12/20 13:12:53;;;;;;;1.33;1.23;;;4.80;99.90;;;;;;5033635;28;20451;-58